sensor_id;sensor_type;location;lat;lon;timestamp;P1;durP1;ratioP1;P2;durP2;ratioP2
16922;SDS011;8578;50.938;13.556;2022-11-12T00:01:45;3.57;;;1.03;;
16922;SDS011;8578;50.938;13.556;2022-11-12T00:04:31;2.10;;;1.10;;
16922;SDS011;8578;50.938;13.556;2022-11-12T00:07:17;1.57;;;0.93;;
16922;SDS011;8578;50.938;13.556;2022-11-12T00:10:03;1.70;;;0.80;;
16922;SDS011;8578;50.938;13.556;2022-11-12T00:12:51;1.63;;;0.80;;
16922;SDS011;8578;50.938;13.556;2022-11-12T00:15:37;2.63;;;0.93;;
16922;SDS011;8578;50.938;13.556;2022-11-12T00:18:23;0.97;;;0.73;;
16922;SDS011;8578;50.938;13.556;2022-11-12T00:21:10;2.00;;;1.00;;
16922;SDS011;8578;50.938;13.556;2022-11-12T00:23:56;2.37;;;0.80;;
16922;SDS011;8578;50.938;13.556;2022-11-12T00:26:42;2.73;;;1.03;;
16922;SDS011;8578;50.938;13.556;2022-11-12T00:29:30;2.60;;;1.10;;
16922;SDS011;8578;50.938;13.556;2022-11-12T00:32:16;3.10;;;0.77;;
16922;SDS011;8578;50.938;13.556;2022-11-12T00:35:02;1.87;;;0.70;;
16922;SDS011;8578;50.938;13.556;2022-11-12T00:37:53;2.00;;;0.90;;
16922;SDS011;8578;50.938;13.556;2022-11-12T00:40:39;1.30;;;0.90;;
16922;SDS011;8578;50.938;13.556;2022-11-12T00:43:26;1.60;;;1.00;;
16922;SDS011;8578;50.938;13.556;2022-11-12T00:46:13;2.70;;;0.80;;
16922;SDS011;8578;50.938;13.556;2022-11-12T00:49:00;1.33;;;0.93;;
16922;SDS011;8578;50.938;13.556;2022-11-12T00:51:46;0.80;;;0.50;;
16922;SDS011;8578;50.938;13.556;2022-11-12T00:54:32;0.87;;;0.70;;
16922;SDS011;8578;50.938;13.556;2022-11-12T00:57:18;2.70;;;0.70;;
16922;SDS011;8578;50.938;13.556;2022-11-12T01:00:05;2.83;;;0.67;;
16922;SDS011;8578;50.938;13.556;2022-11-12T01:02:53;1.57;;;0.80;;
16922;SDS011;8578;50.938;13.556;2022-11-12T01:05:40;2.40;;;0.90;;
16922;SDS011;8578;50.938;13.556;2022-11-12T01:08:27;1.13;;;0.67;;
16922;SDS011;8578;50.938;13.556;2022-11-12T01:11:14;2.97;;;0.83;;
16922;SDS011;8578;50.938;13.556;2022-11-12T01:14:02;1.47;;;0.80;;
16922;SDS011;8578;50.938;13.556;2022-11-12T01:16:48;2.00;;;1.00;;
16922;SDS011;8578;50.938;13.556;2022-11-12T01:19:36;1.47;;;0.90;;
16922;SDS011;8578;50.938;13.556;2022-11-12T01:22:22;2.73;;;0.80;;
16922;SDS011;8578;50.938;13.556;2022-11-12T01:25:08;2.23;;;0.90;;
16922;SDS011;8578;50.938;13.556;2022-11-12T01:27:54;1.93;;;0.97;;
16922;SDS011;8578;50.938;13.556;2022-11-12T01:30:40;3.03;;;1.00;;
16922;SDS011;8578;50.938;13.556;2022-11-12T01:33:27;1.53;;;0.90;;
16922;SDS011;8578;50.938;13.556;2022-11-12T01:36:15;1.47;;;0.90;;
16922;SDS011;8578;50.938;13.556;2022-11-12T01:39:02;1.80;;;0.83;;
16922;SDS011;8578;50.938;13.556;2022-11-12T01:41:48;4.20;;;1.00;;
16922;SDS011;8578;50.938;13.556;2022-11-12T01:44:36;1.00;;;0.67;;
16922;SDS011;8578;50.938;13.556;2022-11-12T01:47:23;1.47;;;1.10;;
16922;SDS011;8578;50.938;13.556;2022-11-12T01:50:13;1.50;;;0.63;;
16922;SDS011;8578;50.938;13.556;2022-11-12T01:53:02;1.73;;;0.80;;
16922;SDS011;8578;50.938;13.556;2022-11-12T01:55:50;1.33;;;0.70;;
16922;SDS011;8578;50.938;13.556;2022-11-12T01:58:40;2.27;;;0.80;;
16922;SDS011;8578;50.938;13.556;2022-11-12T02:01:27;0.93;;;0.53;;
16922;SDS011;8578;50.938;13.556;2022-11-12T02:04:13;1.20;;;0.83;;
16922;SDS011;8578;50.938;13.556;2022-11-12T02:06:59;1.30;;;0.60;;
16922;SDS011;8578;50.938;13.556;2022-11-12T02:09:48;1.47;;;0.80;;
16922;SDS011;8578;50.938;13.556;2022-11-12T02:12:34;1.77;;;0.80;;
16922;SDS011;8578;50.938;13.556;2022-11-12T02:15:39;1.57;;;0.73;;
16922;SDS011;8578;50.938;13.556;2022-11-12T02:18:25;0.73;;;0.50;;
16922;SDS011;8578;50.938;13.556;2022-11-12T02:21:12;3.53;;;0.70;;
16922;SDS011;8578;50.938;13.556;2022-11-12T02:24:03;1.30;;;0.73;;
16922;SDS011;8578;50.938;13.556;2022-11-12T02:26:49;0.90;;;0.60;;
16922;SDS011;8578;50.938;13.556;2022-11-12T02:29:36;1.27;;;0.73;;
16922;SDS011;8578;50.938;13.556;2022-11-12T02:32:29;1.33;;;0.60;;
16922;SDS011;8578;50.938;13.556;2022-11-12T02:35:16;0.83;;;0.67;;
16922;SDS011;8578;50.938;13.556;2022-11-12T02:38:02;1.40;;;0.80;;
16922;SDS011;8578;50.938;13.556;2022-11-12T02:40:50;1.30;;;0.70;;
16922;SDS011;8578;50.938;13.556;2022-11-12T02:43:36;1.93;;;0.60;;
16922;SDS011;8578;50.938;13.556;2022-11-12T02:46:23;1.07;;;0.70;;
16922;SDS011;8578;50.938;13.556;2022-11-12T02:49:09;0.70;;;0.60;;
16922;SDS011;8578;50.938;13.556;2022-11-12T02:51:55;1.33;;;0.60;;
16922;SDS011;8578;50.938;13.556;2022-11-12T02:54:41;1.40;;;0.80;;
16922;SDS011;8578;50.938;13.556;2022-11-12T02:57:28;1.33;;;0.60;;
16922;SDS011;8578;50.938;13.556;2022-11-12T03:00:14;0.70;;;0.60;;
16922;SDS011;8578;50.938;13.556;2022-11-12T03:03:01;0.97;;;0.60;;
16922;SDS011;8578;50.938;13.556;2022-11-12T03:05:53;1.00;;;0.70;;
16922;SDS011;8578;50.938;13.556;2022-11-12T03:08:39;1.37;;;0.87;;
16922;SDS011;8578;50.938;13.556;2022-11-12T03:11:25;1.50;;;0.67;;
16922;SDS011;8578;50.938;13.556;2022-11-12T03:14:13;0.80;;;0.60;;
16922;SDS011;8578;50.938;13.556;2022-11-12T03:16:59;1.20;;;0.67;;
16922;SDS011;8578;50.938;13.556;2022-11-12T03:19:45;2.20;;;0.80;;
16922;SDS011;8578;50.938;13.556;2022-11-12T03:22:31;1.80;;;0.60;;
16922;SDS011;8578;50.938;13.556;2022-11-12T03:25:17;0.97;;;0.60;;
16922;SDS011;8578;50.938;13.556;2022-11-12T03:28:03;1.13;;;0.50;;
16922;SDS011;8578;50.938;13.556;2022-11-12T03:30:55;1.03;;;0.60;;
16922;SDS011;8578;50.938;13.556;2022-11-12T03:33:41;1.30;;;0.63;;
16922;SDS011;8578;50.938;13.556;2022-11-12T03:36:27;1.33;;;0.50;;
16922;SDS011;8578;50.938;13.556;2022-11-12T03:39:13;0.50;;;0.50;;
16922;SDS011;8578;50.938;13.556;2022-11-12T03:41:59;0.80;;;0.50;;
16922;SDS011;8578;50.938;13.556;2022-11-12T03:44:45;1.13;;;0.63;;
16922;SDS011;8578;50.938;13.556;2022-11-12T03:47:33;2.07;;;0.83;;
16922;SDS011;8578;50.938;13.556;2022-11-12T03:50:19;1.70;;;0.57;;
16922;SDS011;8578;50.938;13.556;2022-11-12T03:53:06;3.43;;;0.73;;
16922;SDS011;8578;50.938;13.556;2022-11-12T03:55:52;1.00;;;0.50;;
16922;SDS011;8578;50.938;13.556;2022-11-12T03:58:39;2.23;;;0.40;;
16922;SDS011;8578;50.938;13.556;2022-11-12T04:01:25;1.10;;;0.50;;
16922;SDS011;8578;50.938;13.556;2022-11-12T04:04:12;1.20;;;0.60;;
16922;SDS011;8578;50.938;13.556;2022-11-12T04:06:58;0.57;;;0.50;;
16922;SDS011;8578;50.938;13.556;2022-11-12T04:10:02;0.93;;;0.60;;
16922;SDS011;8578;50.938;13.556;2022-11-12T04:12:49;0.60;;;0.40;;
16922;SDS011;8578;50.938;13.556;2022-11-12T04:15:53;1.03;;;0.50;;
16922;SDS011;8578;50.938;13.556;2022-11-12T04:18:53;1.07;;;0.57;;
16922;SDS011;8578;50.938;13.556;2022-11-12T04:22:00;0.83;;;0.43;;
16922;SDS011;8578;50.938;13.556;2022-11-12T04:24:46;2.50;;;0.70;;
16922;SDS011;8578;50.938;13.556;2022-11-12T04:27:50;2.40;;;0.40;;
16922;SDS011;8578;50.938;13.556;2022-11-12T04:30:36;0.40;;;0.30;;
16922;SDS011;8578;50.938;13.556;2022-11-12T04:33:21;0.30;;;0.30;;
16922;SDS011;8578;50.938;13.556;2022-11-12T04:36:07;0.93;;;0.50;;
16922;SDS011;8578;50.938;13.556;2022-11-12T04:38:54;0.73;;;0.43;;
16922;SDS011;8578;50.938;13.556;2022-11-12T04:41:41;1.03;;;0.60;;
16922;SDS011;8578;50.938;13.556;2022-11-12T04:44:45;2.30;;;0.33;;
16922;SDS011;8578;50.938;13.556;2022-11-12T04:47:47;0.70;;;0.50;;
16922;SDS011;8578;50.938;13.556;2022-11-12T04:50:33;1.00;;;0.57;;
16922;SDS011;8578;50.938;13.556;2022-11-12T04:53:20;1.07;;;0.50;;
16922;SDS011;8578;50.938;13.556;2022-11-12T04:56:07;0.93;;;0.50;;
16922;SDS011;8578;50.938;13.556;2022-11-12T04:58:53;1.70;;;0.80;;
16922;SDS011;8578;50.938;13.556;2022-11-12T05:01:39;0.93;;;0.50;;
16922;SDS011;8578;50.938;13.556;2022-11-12T05:04:25;0.93;;;0.50;;
16922;SDS011;8578;50.938;13.556;2022-11-12T05:07:13;1.00;;;0.60;;
16922;SDS011;8578;50.938;13.556;2022-11-12T05:10:00;1.20;;;0.70;;
16922;SDS011;8578;50.938;13.556;2022-11-12T05:12:47;1.20;;;0.87;;
16922;SDS011;8578;50.938;13.556;2022-11-12T05:15:33;2.93;;;0.73;;
16922;SDS011;8578;50.938;13.556;2022-11-12T05:18:19;0.80;;;0.47;;
16922;SDS011;8578;50.938;13.556;2022-11-12T05:21:05;1.07;;;0.70;;
16922;SDS011;8578;50.938;13.556;2022-11-12T05:24:05;1.60;;;0.67;;
16922;SDS011;8578;50.938;13.556;2022-11-12T05:26:51;2.10;;;1.13;;
16922;SDS011;8578;50.938;13.556;2022-11-12T05:29:38;1.60;;;1.10;;
16922;SDS011;8578;50.938;13.556;2022-11-12T05:32:25;2.43;;;0.90;;
16922;SDS011;8578;50.938;13.556;2022-11-12T05:35:11;1.50;;;0.80;;
16922;SDS011;8578;50.938;13.556;2022-11-12T05:37:57;1.07;;;0.70;;
16922;SDS011;8578;50.938;13.556;2022-11-12T05:40:43;2.03;;;0.93;;
16922;SDS011;8578;50.938;13.556;2022-11-12T05:43:30;1.47;;;0.60;;
16922;SDS011;8578;50.938;13.556;2022-11-12T05:46:17;1.90;;;1.00;;
16922;SDS011;8578;50.938;13.556;2022-11-12T05:49:03;1.80;;;0.80;;
16922;SDS011;8578;50.938;13.556;2022-11-12T05:51:49;1.30;;;0.63;;
16922;SDS011;8578;50.938;13.556;2022-11-12T05:54:35;1.00;;;0.63;;
16922;SDS011;8578;50.938;13.556;2022-11-12T05:57:21;2.13;;;0.73;;
16922;SDS011;8578;50.938;13.556;2022-11-12T06:00:08;1.53;;;0.60;;
16922;SDS011;8578;50.938;13.556;2022-11-12T06:02:57;0.70;;;0.53;;
16922;SDS011;8578;50.938;13.556;2022-11-12T06:05:43;0.60;;;0.47;;
16922;SDS011;8578;50.938;13.556;2022-11-12T06:08:29;1.10;;;0.50;;
16922;SDS011;8578;50.938;13.556;2022-11-12T06:11:15;0.50;;;0.40;;
16922;SDS011;8578;50.938;13.556;2022-11-12T06:14:02;1.07;;;0.50;;
16922;SDS011;8578;50.938;13.556;2022-11-12T06:16:48;1.27;;;0.50;;
16922;SDS011;8578;50.938;13.556;2022-11-12T06:19:35;1.80;;;0.40;;
16922;SDS011;8578;50.938;13.556;2022-11-12T06:22:21;0.80;;;0.40;;
16922;SDS011;8578;50.938;13.556;2022-11-12T06:25:07;0.90;;;0.40;;
16922;SDS011;8578;50.938;13.556;2022-11-12T06:27:54;0.70;;;0.50;;
16922;SDS011;8578;50.938;13.556;2022-11-12T06:30:40;1.13;;;0.50;;
16922;SDS011;8578;50.938;13.556;2022-11-12T06:33:26;3.30;;;1.00;;
16922;SDS011;8578;50.938;13.556;2022-11-12T06:36:14;1.33;;;0.87;;
16922;SDS011;8578;50.938;13.556;2022-11-12T06:39:01;2.00;;;1.23;;
16922;SDS011;8578;50.938;13.556;2022-11-12T06:41:46;3.13;;;1.77;;
16922;SDS011;8578;50.938;13.556;2022-11-12T06:44:33;1.53;;;0.80;;
16922;SDS011;8578;50.938;13.556;2022-11-12T06:47:18;1.30;;;0.80;;
16922;SDS011;8578;50.938;13.556;2022-11-12T06:50:05;1.47;;;0.87;;
16922;SDS011;8578;50.938;13.556;2022-11-12T06:52:52;1.43;;;0.70;;
16922;SDS011;8578;50.938;13.556;2022-11-12T06:55:42;1.00;;;0.50;;
16922;SDS011;8578;50.938;13.556;2022-11-12T06:58:28;1.60;;;1.10;;
16922;SDS011;8578;50.938;13.556;2022-11-12T07:01:15;2.47;;;1.00;;
16922;SDS011;8578;50.938;13.556;2022-11-12T07:04:02;1.97;;;1.10;;
16922;SDS011;8578;50.938;13.556;2022-11-12T07:06:49;4.43;;;2.77;;
16922;SDS011;8578;50.938;13.556;2022-11-12T07:09:36;3.27;;;1.83;;
16922;SDS011;8578;50.938;13.556;2022-11-12T07:12:22;4.07;;;1.90;;
16922;SDS011;8578;50.938;13.556;2022-11-12T07:15:09;2.17;;;1.63;;
16922;SDS011;8578;50.938;13.556;2022-11-12T07:17:55;4.17;;;1.30;;
16922;SDS011;8578;50.938;13.556;2022-11-12T07:20:41;1.77;;;1.27;;
16922;SDS011;8578;50.938;13.556;2022-11-12T07:23:27;2.63;;;1.23;;
16922;SDS011;8578;50.938;13.556;2022-11-12T07:26:17;2.33;;;1.10;;
16922;SDS011;8578;50.938;13.556;2022-11-12T07:29:03;1.17;;;0.60;;
16922;SDS011;8578;50.938;13.556;2022-11-12T07:31:51;2.03;;;0.70;;
16922;SDS011;8578;50.938;13.556;2022-11-12T07:34:37;3.87;;;1.80;;
16922;SDS011;8578;50.938;13.556;2022-11-12T07:37:23;5.63;;;1.40;;
16922;SDS011;8578;50.938;13.556;2022-11-12T07:40:09;1.80;;;1.37;;
16922;SDS011;8578;50.938;13.556;2022-11-12T07:42:58;2.60;;;0.90;;
16922;SDS011;8578;50.938;13.556;2022-11-12T07:45:44;2.07;;;1.37;;
16922;SDS011;8578;50.938;13.556;2022-11-12T07:48:30;3.33;;;1.93;;
16922;SDS011;8578;50.938;13.556;2022-11-12T07:51:17;4.27;;;1.60;;
16922;SDS011;8578;50.938;13.556;2022-11-12T07:54:03;3.13;;;2.30;;
16922;SDS011;8578;50.938;13.556;2022-11-12T07:56:50;3.67;;;2.63;;
16922;SDS011;8578;50.938;13.556;2022-11-12T07:59:37;17.27;;;8.93;;
16922;SDS011;8578;50.938;13.556;2022-11-12T08:02:30;15.17;;;6.93;;
16922;SDS011;8578;50.938;13.556;2022-11-12T08:05:16;12.03;;;6.30;;
16922;SDS011;8578;50.938;13.556;2022-11-12T08:08:05;15.37;;;6.77;;
16922;SDS011;8578;50.938;13.556;2022-11-12T08:10:53;14.43;;;7.57;;
16922;SDS011;8578;50.938;13.556;2022-11-12T08:13:39;17.23;;;9.17;;
16922;SDS011;8578;50.938;13.556;2022-11-12T08:16:26;9.10;;;4.87;;
16922;SDS011;8578;50.938;13.556;2022-11-12T08:19:12;3.50;;;2.10;;
16922;SDS011;8578;50.938;13.556;2022-11-12T08:21:58;5.10;;;2.87;;
16922;SDS011;8578;50.938;13.556;2022-11-12T08:24:45;5.50;;;1.53;;
16922;SDS011;8578;50.938;13.556;2022-11-12T08:27:31;10.97;;;1.97;;
16922;SDS011;8578;50.938;13.556;2022-11-12T08:30:17;2.13;;;0.87;;
16922;SDS011;8578;50.938;13.556;2022-11-12T08:33:04;2.13;;;0.63;;
16922;SDS011;8578;50.938;13.556;2022-11-12T08:35:51;3.43;;;2.00;;
16922;SDS011;8578;50.938;13.556;2022-11-12T08:38:37;1.43;;;0.80;;
16922;SDS011;8578;50.938;13.556;2022-11-12T08:41:23;1.63;;;1.00;;
16922;SDS011;8578;50.938;13.556;2022-11-12T08:44:09;2.73;;;1.13;;
16922;SDS011;8578;50.938;13.556;2022-11-12T08:46:55;1.73;;;1.07;;
16922;SDS011;8578;50.938;13.556;2022-11-12T08:49:44;2.00;;;1.20;;
16922;SDS011;8578;50.938;13.556;2022-11-12T08:52:32;1.57;;;1.00;;
16922;SDS011;8578;50.938;13.556;2022-11-12T08:55:18;2.13;;;1.17;;
16922;SDS011;8578;50.938;13.556;2022-11-12T08:58:04;2.97;;;1.37;;
16922;SDS011;8578;50.938;13.556;2022-11-12T09:00:50;2.17;;;1.27;;
16922;SDS011;8578;50.938;13.556;2022-11-12T09:03:37;5.13;;;1.43;;
16922;SDS011;8578;50.938;13.556;2022-11-12T09:06:24;2.43;;;1.53;;
16922;SDS011;8578;50.938;13.556;2022-11-12T09:09:10;4.43;;;1.67;;
16922;SDS011;8578;50.938;13.556;2022-11-12T09:11:57;5.83;;;2.33;;
16922;SDS011;8578;50.938;13.556;2022-11-12T09:14:43;3.73;;;1.90;;
16922;SDS011;8578;50.938;13.556;2022-11-12T09:17:29;2.10;;;1.10;;
16922;SDS011;8578;50.938;13.556;2022-11-12T09:20:16;2.53;;;1.20;;
16922;SDS011;8578;50.938;13.556;2022-11-12T09:23:05;1.87;;;1.30;;
16922;SDS011;8578;50.938;13.556;2022-11-12T09:25:53;2.03;;;1.10;;
16922;SDS011;8578;50.938;13.556;2022-11-12T09:28:39;3.00;;;1.07;;
16922;SDS011;8578;50.938;13.556;2022-11-12T09:31:25;2.20;;;1.13;;
16922;SDS011;8578;50.938;13.556;2022-11-12T09:34:11;3.97;;;1.20;;
16922;SDS011;8578;50.938;13.556;2022-11-12T09:36:57;1.10;;;0.90;;
16922;SDS011;8578;50.938;13.556;2022-11-12T09:39:44;2.17;;;1.20;;
16922;SDS011;8578;50.938;13.556;2022-11-12T09:42:32;2.30;;;0.87;;
16922;SDS011;8578;50.938;13.556;2022-11-12T09:45:21;1.00;;;0.50;;
16922;SDS011;8578;50.938;13.556;2022-11-12T09:48:10;1.47;;;0.83;;
16922;SDS011;8578;50.938;13.556;2022-11-12T09:50:58;1.80;;;0.80;;
16922;SDS011;8578;50.938;13.556;2022-11-12T09:53:46;1.43;;;0.90;;
16922;SDS011;8578;50.938;13.556;2022-11-12T09:56:34;0.97;;;0.60;;
16922;SDS011;8578;50.938;13.556;2022-11-12T09:59:21;1.73;;;0.80;;
16922;SDS011;8578;50.938;13.556;2022-11-12T10:02:14;1.53;;;0.77;;
16922;SDS011;8578;50.938;13.556;2022-11-12T10:05:08;1.50;;;0.70;;
16922;SDS011;8578;50.938;13.556;2022-11-12T10:08:12;1.87;;;0.70;;
16922;SDS011;8578;50.938;13.556;2022-11-12T10:11:01;1.80;;;0.70;;
16922;SDS011;8578;50.938;13.556;2022-11-12T10:13:55;1.23;;;0.50;;
16922;SDS011;8578;50.938;13.556;2022-11-12T10:16:48;1.27;;;0.70;;
16922;SDS011;8578;50.938;13.556;2022-11-12T10:19:38;0.40;;;0.40;;
16922;SDS011;8578;50.938;13.556;2022-11-12T10:22:30;0.60;;;0.50;;
16922;SDS011;8578;50.938;13.556;2022-11-12T10:25:17;0.80;;;0.50;;
16922;SDS011;8578;50.938;13.556;2022-11-12T10:28:09;0.60;;;0.40;;
16922;SDS011;8578;50.938;13.556;2022-11-12T10:30:59;1.33;;;0.50;;
16922;SDS011;8578;50.938;13.556;2022-11-12T10:33:46;0.90;;;0.70;;
16922;SDS011;8578;50.938;13.556;2022-11-12T10:36:33;1.33;;;0.60;;
16922;SDS011;8578;50.938;13.556;2022-11-12T10:39:30;1.63;;;0.60;;
16922;SDS011;8578;50.938;13.556;2022-11-12T10:42:17;0.60;;;0.40;;
16922;SDS011;8578;50.938;13.556;2022-11-12T10:45:17;0.60;;;0.50;;
16922;SDS011;8578;50.938;13.556;2022-11-12T10:48:06;0.90;;;0.60;;
16922;SDS011;8578;50.938;13.556;2022-11-12T10:51:17;1.87;;;0.50;;
16922;SDS011;8578;50.938;13.556;2022-11-12T10:54:18;6.97;;;2.60;;
16922;SDS011;8578;50.938;13.556;2022-11-12T10:57:16;0.90;;;0.50;;
16922;SDS011;8578;50.938;13.556;2022-11-12T11:00:08;3.10;;;0.77;;
16922;SDS011;8578;50.938;13.556;2022-11-12T11:02:54;2.03;;;0.50;;
16922;SDS011;8578;50.938;13.556;2022-11-12T11:05:49;1.60;;;0.53;;
16922;SDS011;8578;50.938;13.556;2022-11-12T11:08:37;1.73;;;0.40;;
16922;SDS011;8578;50.938;13.556;2022-11-12T11:11:24;0.87;;;0.47;;
16922;SDS011;8578;50.938;13.556;2022-11-12T11:14:22;1.70;;;0.70;;
16922;SDS011;8578;50.938;13.556;2022-11-12T11:17:13;1.97;;;0.60;;
16922;SDS011;8578;50.938;13.556;2022-11-12T11:20:00;0.60;;;0.30;;
16922;SDS011;8578;50.938;13.556;2022-11-12T11:22:49;0.57;;;0.40;;
16922;SDS011;8578;50.938;13.556;2022-11-12T11:25:39;1.03;;;0.60;;
16922;SDS011;8578;50.938;13.556;2022-11-12T11:28:29;0.90;;;0.70;;
16922;SDS011;8578;50.938;13.556;2022-11-12T11:31:17;0.93;;;0.60;;
16922;SDS011;8578;50.938;13.556;2022-11-12T11:34:13;1.03;;;0.73;;
16922;SDS011;8578;50.938;13.556;2022-11-12T11:37:05;0.90;;;0.63;;
16922;SDS011;8578;50.938;13.556;2022-11-12T11:39:56;0.83;;;0.70;;
16922;SDS011;8578;50.938;13.556;2022-11-12T11:42:49;2.60;;;1.03;;
16922;SDS011;8578;50.938;13.556;2022-11-12T11:45:46;2.10;;;1.10;;
16922;SDS011;8578;50.938;13.556;2022-11-12T11:48:37;2.50;;;0.97;;
16922;SDS011;8578;50.938;13.556;2022-11-12T11:51:32;1.37;;;0.90;;
16922;SDS011;8578;50.938;13.556;2022-11-12T11:54:30;2.20;;;1.00;;
16922;SDS011;8578;50.938;13.556;2022-11-12T11:57:22;1.60;;;1.10;;
16922;SDS011;8578;50.938;13.556;2022-11-12T12:00:11;3.13;;;0.83;;
16922;SDS011;8578;50.938;13.556;2022-11-12T12:03:10;1.50;;;0.93;;
16922;SDS011;8578;50.938;13.556;2022-11-12T12:09:06;2.70;;;1.00;;
16922;SDS011;8578;50.938;13.556;2022-11-12T12:11:57;1.77;;;0.87;;
16922;SDS011;8578;50.938;13.556;2022-11-12T12:14:50;2.43;;;0.83;;
16922;SDS011;8578;50.938;13.556;2022-11-12T12:17:41;1.20;;;0.87;;
16922;SDS011;8578;50.938;13.556;2022-11-12T12:20:34;1.40;;;1.00;;
16922;SDS011;8578;50.938;13.556;2022-11-12T12:23:24;1.33;;;0.93;;
16922;SDS011;8578;50.938;13.556;2022-11-12T12:26:13;1.80;;;1.10;;
16922;SDS011;8578;50.938;13.556;2022-11-12T12:29:01;2.20;;;1.10;;
16922;SDS011;8578;50.938;13.556;2022-11-12T12:31:51;1.93;;;1.30;;
16922;SDS011;8578;50.938;13.556;2022-11-12T12:34:38;4.00;;;1.97;;
16922;SDS011;8578;50.938;13.556;2022-11-12T12:37:36;4.30;;;2.70;;
16922;SDS011;8578;50.938;13.556;2022-11-12T12:40:24;3.27;;;2.00;;
16922;SDS011;8578;50.938;13.556;2022-11-12T12:43:12;2.60;;;1.93;;
16922;SDS011;8578;50.938;13.556;2022-11-12T12:46:02;1.97;;;1.60;;
16922;SDS011;8578;50.938;13.556;2022-11-12T12:48:51;2.23;;;1.30;;
16922;SDS011;8578;50.938;13.556;2022-11-12T12:51:38;3.33;;;1.30;;
16922;SDS011;8578;50.938;13.556;2022-11-12T12:57:30;1.73;;;1.13;;
16922;SDS011;8578;50.938;13.556;2022-11-12T13:00:23;2.40;;;1.07;;
16922;SDS011;8578;50.938;13.556;2022-11-12T13:03:09;2.23;;;1.00;;
16922;SDS011;8578;50.938;13.556;2022-11-12T13:06:06;1.50;;;0.80;;
16922;SDS011;8578;50.938;13.556;2022-11-12T13:08:53;1.97;;;1.53;;
16922;SDS011;8578;50.938;13.556;2022-11-12T13:11:50;3.37;;;1.67;;
16922;SDS011;8578;50.938;13.556;2022-11-12T13:17:55;1.50;;;0.93;;
16922;SDS011;8578;50.938;13.556;2022-11-12T13:20:41;1.87;;;0.90;;
16922;SDS011;8578;50.938;13.556;2022-11-12T13:23:49;1.47;;;0.90;;
16922;SDS011;8578;50.938;13.556;2022-11-12T13:26:53;1.77;;;0.87;;
16922;SDS011;8578;50.938;13.556;2022-11-12T13:29:40;3.40;;;1.30;;
16922;SDS011;8578;50.938;13.556;2022-11-12T13:32:28;2.07;;;1.40;;
16922;SDS011;8578;50.938;13.556;2022-11-12T13:35:19;1.53;;;1.13;;
16922;SDS011;8578;50.938;13.556;2022-11-12T13:38:09;2.13;;;1.23;;
16922;SDS011;8578;50.938;13.556;2022-11-12T13:41:03;2.30;;;1.33;;
16922;SDS011;8578;50.938;13.556;2022-11-12T13:43:51;2.03;;;1.37;;
16922;SDS011;8578;50.938;13.556;2022-11-12T13:46:37;3.43;;;1.83;;
16922;SDS011;8578;50.938;13.556;2022-11-12T13:49:23;3.30;;;1.50;;
16922;SDS011;8578;50.938;13.556;2022-11-12T13:52:10;2.60;;;1.47;;
16922;SDS011;8578;50.938;13.556;2022-11-12T13:55:01;2.27;;;1.20;;
16922;SDS011;8578;50.938;13.556;2022-11-12T13:57:49;1.70;;;1.10;;
16922;SDS011;8578;50.938;13.556;2022-11-12T14:00:36;4.97;;;1.30;;
16922;SDS011;8578;50.938;13.556;2022-11-12T14:03:23;1.50;;;1.00;;
16922;SDS011;8578;50.938;13.556;2022-11-12T14:06:14;2.43;;;1.30;;
16922;SDS011;8578;50.938;13.556;2022-11-12T14:09:12;2.50;;;1.30;;
16922;SDS011;8578;50.938;13.556;2022-11-12T14:12:04;2.43;;;1.40;;
16922;SDS011;8578;50.938;13.556;2022-11-12T14:15:00;3.20;;;2.10;;
16922;SDS011;8578;50.938;13.556;2022-11-12T14:17:50;5.37;;;2.87;;
16922;SDS011;8578;50.938;13.556;2022-11-12T14:20:40;4.80;;;2.40;;
16922;SDS011;8578;50.938;13.556;2022-11-12T14:23:27;6.63;;;3.00;;
16922;SDS011;8578;50.938;13.556;2022-11-12T14:26:31;12.50;;;4.63;;
16922;SDS011;8578;50.938;13.556;2022-11-12T14:29:18;9.30;;;4.30;;
16922;SDS011;8578;50.938;13.556;2022-11-12T14:32:07;9.37;;;3.70;;
16922;SDS011;8578;50.938;13.556;2022-11-12T14:34:53;10.63;;;5.10;;
16922;SDS011;8578;50.938;13.556;2022-11-12T14:37:47;7.67;;;4.30;;
16922;SDS011;8578;50.938;13.556;2022-11-12T14:40:36;19.00;;;10.10;;
16922;SDS011;8578;50.938;13.556;2022-11-12T14:43:24;6.10;;;3.57;;
16922;SDS011;8578;50.938;13.556;2022-11-12T14:46:19;6.50;;;2.73;;
16922;SDS011;8578;50.938;13.556;2022-11-12T14:49:11;5.83;;;2.57;;
16922;SDS011;8578;50.938;13.556;2022-11-12T14:52:02;5.13;;;2.87;;
16922;SDS011;8578;50.938;13.556;2022-11-12T14:54:50;5.87;;;2.67;;
16922;SDS011;8578;50.938;13.556;2022-11-12T14:57:38;6.33;;;3.33;;
16922;SDS011;8578;50.938;13.556;2022-11-12T15:00:41;8.47;;;3.90;;
16922;SDS011;8578;50.938;13.556;2022-11-12T15:03:30;6.93;;;4.00;;
16922;SDS011;8578;50.938;13.556;2022-11-12T15:06:19;9.20;;;5.13;;
16922;SDS011;8578;50.938;13.556;2022-11-12T15:09:06;8.70;;;5.10;;
16922;SDS011;8578;50.938;13.556;2022-11-12T15:11:53;8.33;;;4.63;;
16922;SDS011;8578;50.938;13.556;2022-11-12T15:14:39;3.23;;;1.90;;
16922;SDS011;8578;50.938;13.556;2022-11-12T15:17:26;5.17;;;2.17;;
16922;SDS011;8578;50.938;13.556;2022-11-12T15:20:14;5.70;;;3.07;;
16922;SDS011;8578;50.938;13.556;2022-11-12T15:23:02;4.67;;;2.87;;
16922;SDS011;8578;50.938;13.556;2022-11-12T15:25:56;5.40;;;2.83;;
16922;SDS011;8578;50.938;13.556;2022-11-12T15:28:56;3.77;;;2.40;;
16922;SDS011;8578;50.938;13.556;2022-11-12T15:31:42;4.33;;;2.10;;
16922;SDS011;8578;50.938;13.556;2022-11-12T15:34:33;3.67;;;2.20;;
16922;SDS011;8578;50.938;13.556;2022-11-12T15:37:29;3.60;;;2.17;;
16922;SDS011;8578;50.938;13.556;2022-11-12T15:40:20;3.70;;;2.23;;
16922;SDS011;8578;50.938;13.556;2022-11-12T15:43:09;4.80;;;2.40;;
16922;SDS011;8578;50.938;13.556;2022-11-12T15:45:57;4.53;;;2.20;;
16922;SDS011;8578;50.938;13.556;2022-11-12T15:48:43;4.30;;;1.70;;
16922;SDS011;8578;50.938;13.556;2022-11-12T15:51:30;3.10;;;1.77;;
16922;SDS011;8578;50.938;13.556;2022-11-12T15:54:17;2.57;;;1.60;;
16922;SDS011;8578;50.938;13.556;2022-11-12T15:57:06;2.73;;;1.67;;
16922;SDS011;8578;50.938;13.556;2022-11-12T15:59:53;3.37;;;2.03;;
16922;SDS011;8578;50.938;13.556;2022-11-12T16:02:51;4.20;;;1.70;;
16922;SDS011;8578;50.938;13.556;2022-11-12T16:05:40;2.50;;;1.67;;
16922;SDS011;8578;50.938;13.556;2022-11-12T16:08:26;3.43;;;2.07;;
16922;SDS011;8578;50.938;13.556;2022-11-12T16:11:12;3.47;;;1.83;;
16922;SDS011;8578;50.938;13.556;2022-11-12T16:14:13;4.07;;;2.07;;
16922;SDS011;8578;50.938;13.556;2022-11-12T16:16:59;4.33;;;2.30;;
16922;SDS011;8578;50.938;13.556;2022-11-12T16:19:45;4.40;;;2.23;;
16922;SDS011;8578;50.938;13.556;2022-11-12T16:22:31;4.03;;;2.30;;
16922;SDS011;8578;50.938;13.556;2022-11-12T16:25:17;3.80;;;2.27;;
16922;SDS011;8578;50.938;13.556;2022-11-12T16:28:05;5.90;;;2.83;;
16922;SDS011;8578;50.938;13.556;2022-11-12T16:30:56;9.70;;;5.67;;
16922;SDS011;8578;50.938;13.556;2022-11-12T16:33:42;17.03;;;9.73;;
16922;SDS011;8578;50.938;13.556;2022-11-12T16:36:28;16.50;;;8.77;;
16922;SDS011;8578;50.938;13.556;2022-11-12T16:39:14;8.37;;;4.40;;
16922;SDS011;8578;50.938;13.556;2022-11-12T16:42:01;4.40;;;3.27;;
16922;SDS011;8578;50.938;13.556;2022-11-12T16:44:47;6.80;;;3.67;;
16922;SDS011;8578;50.938;13.556;2022-11-12T16:47:34;9.33;;;5.10;;
16922;SDS011;8578;50.938;13.556;2022-11-12T16:50:22;8.70;;;4.47;;
16922;SDS011;8578;50.938;13.556;2022-11-12T16:53:08;5.93;;;3.83;;
16922;SDS011;8578;50.938;13.556;2022-11-12T16:55:55;7.23;;;4.33;;
16922;SDS011;8578;50.938;13.556;2022-11-12T16:58:41;9.37;;;5.10;;
16922;SDS011;8578;50.938;13.556;2022-11-12T17:01:28;11.07;;;6.07;;
16922;SDS011;8578;50.938;13.556;2022-11-12T17:04:16;9.90;;;5.90;;
16922;SDS011;8578;50.938;13.556;2022-11-12T17:07:03;12.83;;;7.57;;